createdAt,value
2019-04-22T00:01:57.006Z,13.02
2019-04-22T00:04:41.449Z,13.01
2019-04-22T00:07:22.735Z,12.97
2019-04-22T00:09:58.344Z,12.91
2019-04-22T00:12:27.932Z,12.89
2019-04-22T00:14:54.327Z,12.87
2019-04-22T00:17:30.105Z,12.85
2019-04-22T00:22:27.760Z,12.73
2019-04-22T00:25:02.983Z,12.72
2019-04-22T00:27:37.288Z,12.69
2019-04-22T00:30:07.700Z,12.67
2019-04-22T00:32:50.002Z,12.62
2019-04-22T00:35:19.812Z,12.60
2019-04-22T00:37:59.686Z,12.58
2019-04-22T00:40:30.600Z,12.58
2019-04-22T00:42:53.801Z,12.57
2019-04-22T00:45:31.190Z,12.59
2019-04-22T00:48:01.000Z,12.54
2019-04-22T00:53:04.572Z,12.45
2019-04-22T00:55:31.250Z,12.44
2019-04-22T00:58:13.953Z,12.45
2019-04-22T01:00:39.277Z,12.45
2019-04-22T01:03:10.973Z,12.40
2019-04-22T01:05:43.699Z,12.44
2019-04-22T01:08:15.385Z,12.46
2019-04-22T01:10:45.191Z,12.39
2019-04-22T01:13:16.680Z,12.34
2019-04-22T01:16:04.568Z,12.26
2019-04-22T01:18:15.768Z,12.18
2019-04-22T01:23:19.270Z,12.03
2019-04-22T01:25:46.128Z,12.01
2019-04-22T01:28:15.302Z,12.09
2019-04-22T01:30:40.663Z,12.13
2019-04-22T01:33:12.769Z,12.08
2019-04-22T01:35:53.886Z,12.02
2019-04-22T01:38:26.518Z,12.01
2019-04-22T01:41:07.121Z,12.01
2019-04-22T01:43:46.115Z,11.99
2019-04-22T01:46:08.514Z,11.89
2019-04-22T01:48:39.565Z,11.79
2019-04-22T01:51:01.681Z,11.78
2019-04-22T01:53:47.368Z,11.78
2019-04-22T01:56:13.754Z,11.74
2019-04-22T01:58:33.214Z,11.70
2019-04-22T02:01:13.545Z,11.69
2019-04-22T02:03:52.758Z,11.63
2019-04-22T02:06:17.286Z,11.59
2019-04-22T02:11:30.275Z,11.46
2019-04-22T02:13:49.545Z,11.42
2019-04-22T02:16:21.192Z,11.42
2019-04-22T02:18:52.414Z,11.37
2019-04-22T02:21:23.434Z,11.38
2019-04-22T02:26:25.563Z,11.40
2019-04-22T02:29:15.058Z,11.41
2019-04-22T02:31:40.545Z,11.36
2019-04-22T02:36:35.923Z,11.31
2019-04-22T02:41:30.924Z,11.17
2019-04-22T02:46:54.698Z,11.12
2019-04-22T03:01:41.210Z,10.97
2019-04-22T03:04:20.549Z,10.98
2019-04-22T03:06:38.399Z,10.93
2019-04-22T03:09:18.503Z,10.93
2019-04-22T03:12:02.951Z,10.97
2019-04-22T03:14:22.755Z,10.92
2019-04-22T03:16:54.835Z,10.96
2019-04-22T03:21:57.909Z,10.83
2019-04-22T03:24:27.835Z,10.80
2019-04-22T03:26:59.245Z,10.77
2019-04-22T03:33:05.881Z,10.68
2019-04-22T03:42:56.313Z,10.56
2019-04-22T03:45:28.435Z,10.56
2019-04-22T03:47:54.145Z,10.50
2019-04-22T04:00:42.927Z,10.44
2019-04-22T04:05:49.661Z,10.29
2019-04-22T04:13:03.326Z,10.31
2019-04-22T04:16:03.112Z,10.33
2019-04-22T04:18:03.327Z,10.30
2019-04-22T04:25:42.723Z,10.28
2019-04-22T04:28:31.356Z,10.33
2019-04-22T04:33:21.164Z,10.39
2019-04-22T04:38:11.590Z,10.51
2019-04-22T04:40:39.959Z,10.51
2019-04-22T04:43:18.822Z,10.54
2019-04-22T04:48:20.997Z,10.58
2019-04-22T04:51:01.616Z,10.62
2019-04-22T04:55:53.169Z,10.75
2019-04-22T04:58:36.754Z,10.81
2019-04-22T05:01:00.610Z,10.77
2019-04-22T05:03:32.816Z,10.78
2019-04-22T05:05:58.984Z,10.80
2019-04-22T05:08:40.572Z,10.81
2019-04-22T05:11:16.186Z,10.84
2019-04-22T05:13:33.412Z,10.87
2019-04-22T05:16:17.454Z,10.93
2019-04-22T05:21:09.561Z,10.95
2019-04-22T05:23:40.511Z,11.01
2019-04-22T05:26:04.312Z,11.05
2019-04-22T05:28:33.523Z,11.14
2019-04-22T05:31:05.152Z,11.17
2019-04-22T05:33:35.021Z,11.31
2019-04-22T05:36:07.427Z,11.43
2019-04-22T05:38:42.824Z,11.55
2019-04-22T05:41:14.341Z,11.67
2019-04-22T05:43:42.340Z,11.68
2019-04-22T05:46:09.151Z,11.75
2019-04-22T05:51:09.780Z,11.91
2019-04-22T05:53:42.818Z,11.99
2019-04-22T05:56:22.069Z,12.05
2019-04-22T06:03:56.492Z,12.44
2019-04-22T06:06:18.223Z,12.52
2019-04-22T06:08:51.287Z,12.52
2019-04-22T06:11:25.655Z,12.53
2019-04-22T06:13:50.221Z,12.60
2019-04-22T06:16:29.177Z,12.66
2019-04-22T06:18:58.276Z,12.69
2019-04-22T06:21:31.108Z,12.72
2019-04-22T06:24:06.365Z,12.76
2019-04-22T06:26:37.925Z,12.80
2019-04-22T06:29:01.345Z,12.94
2019-04-22T06:31:54.459Z,12.92
2019-04-22T06:34:06.206Z,13.01
2019-04-22T06:36:37.465Z,13.11
2019-04-22T06:39:10.549Z,13.13
2019-04-22T06:41:33.374Z,13.22
2019-04-22T06:44:16.190Z,13.36
2019-04-22T06:46:39.939Z,13.42
2019-04-22T06:49:11.285Z,13.47
2019-04-22T06:51:40.589Z,13.57
2019-04-22T06:54:14.693Z,13.61
2019-04-22T06:56:42.752Z,13.69
2019-04-22T06:59:16.865Z,13.75
2019-04-22T07:01:52.420Z,13.84
2019-04-22T07:04:11.656Z,13.92
2019-04-22T07:06:48.327Z,14.03
2019-04-22T07:09:31.533Z,14.12
2019-04-22T07:11:50.750Z,14.20
2019-04-22T07:14:18.110Z,14.29
2019-04-22T07:16:54.541Z,14.41
2019-04-22T07:21:57.597Z,14.60
2019-04-22T07:24:40.426Z,14.71
2019-04-22T07:27:01.924Z,14.81
2019-04-22T07:29:29.766Z,14.94
2019-04-22T07:32:01.556Z,15.08
2019-04-22T07:34:33.131Z,15.18
2019-04-22T07:37:09.261Z,15.28
2019-04-22T07:39:37.958Z,15.41
2019-04-22T07:42:10.777Z,15.55
2019-04-22T07:44:38.495Z,15.68
2019-04-22T07:47:15.254Z,15.79
2019-04-22T07:52:12.433Z,15.97
2019-04-22T07:54:43.133Z,16.09
2019-04-22T07:59:43.640Z,16.29
2019-04-22T08:02:16.298Z,16.39
2019-04-22T08:05:05.670Z,16.51
2019-04-22T08:07:18.177Z,16.60
2019-04-22T08:09:51.090Z,16.69
2019-04-22T08:12:20.299Z,16.81
2019-04-22T08:17:45.149Z,17.04
2019-04-22T08:19:57.780Z,17.02
2019-04-22T08:22:24.092Z,16.87
2019-04-22T08:24:57.914Z,16.93
2019-04-22T08:27:25.322Z,17.09
2019-04-22T08:32:38.027Z,17.40
2019-04-22T08:35:04.915Z,17.52
2019-04-22T08:40:09.650Z,17.81
2019-04-22T08:42:48.224Z,18.02
2019-04-22T08:45:12.030Z,18.25
2019-04-22T08:47:36.601Z,18.35
2019-04-22T08:50:10.924Z,18.43
2019-04-22T08:52:41.822Z,18.50
2019-04-22T08:55:12.945Z,18.69
2019-04-22T08:58:03.529Z,18.79
2019-04-22T09:00:13.000Z,18.92
2019-04-22T09:02:51.230Z,19.12
2019-04-22T09:05:33.536Z,19.26
2019-04-22T09:07:46.961Z,19.39
2019-04-22T09:10:19.924Z,19.38
2019-04-22T09:12:56.743Z,19.40
2019-04-22T09:15:24.727Z,19.72
2019-04-22T09:17:55.843Z,19.94
2019-04-22T09:20:21.723Z,20.28
2019-04-22T09:23:00.247Z,20.47
2019-04-22T09:25:24.011Z,20.65
2019-04-22T09:27:56.027Z,20.84
2019-04-22T09:30:30.633Z,21.12
2019-04-22T09:33:06.246Z,21.51
2019-04-22T09:35:31.881Z,21.98
2019-04-22T09:38:13.770Z,22.25
2019-04-22T09:40:34.608Z,22.56
2019-04-22T09:43:02.907Z,22.92
2019-04-22T09:45:34.381Z,23.10
2019-04-22T09:48:09.011Z,23.14
2019-04-22T09:50:43.146Z,23.20
2019-04-22T09:53:08.067Z,23.15
2019-04-22T09:55:34.574Z,23.12
2019-04-22T09:58:09.654Z,23.54
2019-04-22T10:00:52.760Z,23.98
2019-04-22T10:03:20.507Z,24.24
2019-04-22T10:06:02.511Z,24.49
2019-04-22T10:08:31.660Z,24.73
2019-04-22T10:10:56.579Z,25.04
2019-04-22T10:13:25.587Z,25.22
2019-04-22T10:15:57.298Z,25.50
2019-04-22T10:18:28.912Z,25.31
2019-04-22T10:21:00.726Z,25.55
2019-04-22T10:23:34.526Z,26.13
2019-04-22T10:26:00.795Z,26.15
2019-04-22T10:31:01.176Z,26.13
2019-04-22T10:33:26.875Z,26.52
2019-04-22T10:35:39.451Z,26.79
2019-04-22T10:38:10.325Z,26.60
2019-04-22T10:40:40.737Z,26.88
2019-04-22T10:43:11.531Z,27.14
2019-04-22T10:45:41.985Z,27.12
2019-04-22T10:48:12.332Z,27.68
2019-04-22T10:50:46.861Z,28.07
2019-04-22T10:53:17.924Z,28.45
2019-04-22T10:55:49.861Z,28.88
2019-04-22T10:58:20.537Z,29.29
2019-04-22T11:00:52.087Z,29.73
2019-04-22T11:03:22.478Z,29.77
2019-04-22T11:05:53.920Z,29.69
2019-04-22T11:08:32.583Z,29.23
2019-04-22T11:11:12.490Z,29.05
2019-04-22T11:13:26.137Z,29.43
2019-04-22T11:15:55.846Z,30.14
2019-04-22T11:18:25.421Z,30.53
2019-04-22T11:20:55.781Z,30.65
2019-04-22T11:23:27.014Z,30.39
2019-04-22T11:25:57.611Z,30.58
2019-04-22T11:28:27.820Z,31.06
2019-04-22T11:30:58.700Z,31.63
2019-04-22T11:33:28.342Z,31.75
2019-04-22T11:35:57.743Z,31.38
2019-04-22T11:38:28.506Z,30.82
2019-04-22T11:41:00.023Z,30.70
2019-04-22T11:43:30.464Z,30.65
2019-04-22T11:46:00.186Z,30.92
2019-04-22T11:48:31.045Z,31.42
2019-04-22T11:51:02.017Z,31.83
2019-04-22T11:53:31.508Z,32.24
2019-04-22T11:56:00.914Z,32.14
2019-04-22T11:58:30.794Z,32.43
2019-04-22T12:01:01.071Z,32.35
2019-04-22T12:03:31.663Z,32.40
2019-04-22T12:06:02.070Z,32.74
2019-04-22T12:08:31.583Z,32.61
2019-04-22T12:11:05.498Z,32.91
2019-04-22T12:13:33.783Z,33.35
2019-04-22T12:16:03.449Z,33.21
2019-04-22T12:18:33.313Z,33.24
2019-04-22T12:21:03.550Z,33.60
2019-04-22T12:23:34.849Z,33.70
2019-04-22T12:26:09.870Z,34.14
2019-04-22T12:28:36.804Z,34.18
2019-04-22T12:31:06.672Z,34.93
2019-04-22T12:33:37.119Z,36.32
2019-04-22T12:36:08.670Z,37.74
2019-04-22T12:38:39.761Z,38.46
2019-04-22T12:41:11.974Z,39.43
2019-04-22T12:43:41.019Z,39.93
2019-04-22T12:46:12.079Z,40.81
2019-04-22T12:48:41.529Z,41.61
2019-04-22T12:51:11.098Z,42.35
2019-04-22T12:53:42.114Z,42.25
2019-04-22T12:56:12.658Z,42.50
2019-04-22T12:58:43.373Z,43.11
2019-04-22T13:01:13.158Z,44.04
2019-04-22T13:03:42.656Z,44.28
2019-04-22T13:06:12.267Z,44.83
2019-04-22T13:08:41.677Z,45.26
2019-04-22T13:11:14.494Z,45.05
2019-04-22T13:13:42.987Z,45.48
2019-04-22T13:16:13.397Z,45.15
2019-04-22T13:18:50.186Z,44.72
2019-04-22T13:21:15.054Z,44.11
2019-04-22T13:23:44.648Z,43.75
2019-04-22T13:26:15.131Z,43.99
2019-04-22T13:28:45.117Z,44.68
2019-04-22T13:31:16.070Z,44.92
2019-04-22T13:33:46.697Z,45.52
2019-04-22T13:36:19.192Z,45.62
2019-04-22T13:38:49.225Z,45.94
2019-04-22T13:41:28.915Z,45.54
2019-04-22T13:43:51.005Z,45.28
2019-04-22T13:46:21.949Z,44.43
2019-04-22T13:49:17.201Z,43.98
2019-04-22T13:51:52.597Z,42.97
2019-04-22T13:56:46.319Z,42.98
2019-04-22T13:59:07.278Z,43.61
2019-04-22T14:01:38.632Z,44.07
2019-04-22T14:04:12.599Z,43.74
2019-04-22T14:06:42.864Z,44.19
2019-04-22T14:09:13.698Z,44.13
2019-04-22T14:11:50.858Z,44.10
2019-04-22T14:14:15.640Z,44.41
2019-04-22T14:16:45.278Z,44.48
2019-04-22T14:19:16.052Z,44.36
2019-04-22T14:21:47.463Z,44.14
2019-04-22T14:24:17.876Z,44.26
2019-04-22T14:26:58.837Z,43.92
2019-04-22T14:29:19.709Z,44.03
2019-04-22T14:32:01.122Z,43.37
2019-04-22T14:34:20.808Z,42.53
2019-04-22T14:36:51.110Z,41.48
2019-04-22T14:39:21.902Z,39.05
2019-04-22T14:44:12.633Z,36.42
2019-04-22T14:45:15.190Z,34.80
2019-04-22T14:47:21.172Z,32.98
2019-04-22T14:49:50.427Z,31.66
2019-04-22T14:52:24.764Z,30.82
2019-04-22T14:54:44.642Z,29.85
2019-04-22T14:56:59.028Z,29.57
2019-04-22T14:59:29.213Z,29.93
2019-04-22T15:01:58.974Z,30.55
2019-04-22T15:04:29.023Z,30.78
2019-04-22T15:06:59.055Z,31.14
2019-04-22T15:09:30.076Z,31.24
2019-04-22T15:12:14.477Z,31.16
2019-04-22T15:14:31.047Z,31.27
2019-04-22T15:17:02.637Z,31.74
2019-04-22T15:19:38.020Z,31.94
2019-04-22T15:22:08.490Z,32.28
2019-04-22T15:24:38.765Z,32.24
2019-04-22T15:27:08.807Z,32.44
2019-04-22T15:29:39.073Z,32.56
2019-04-22T15:32:09.383Z,32.40
2019-04-22T15:34:39.513Z,32.07
2019-04-22T15:37:09.209Z,32.09
2019-04-22T15:39:39.541Z,32.14
2019-04-22T15:42:14.584Z,31.96
2019-04-22T15:44:40.262Z,31.49
2019-04-22T15:47:11.014Z,31.40
2019-04-22T15:49:42.146Z,31.32
2019-04-22T15:52:12.561Z,31.31
2019-04-22T15:54:43.599Z,31.31
2019-04-22T15:57:14.800Z,31.32
2019-04-22T15:59:57.488Z,31.14
2019-04-22T16:02:16.034Z,31.16
2019-04-22T16:04:46.544Z,30.71
2019-04-22T16:07:17.102Z,30.41
2019-04-22T16:09:47.858Z,30.42
2019-04-22T16:12:26.162Z,30.50
2019-04-22T16:14:53.491Z,30.45
2019-04-22T16:17:19.770Z,29.99
2019-04-22T16:19:49.236Z,29.78
2019-04-22T16:22:21.809Z,29.73
2019-04-22T16:24:56.248Z,29.75
2019-04-22T16:27:27.455Z,29.71
2019-04-22T16:29:57.234Z,29.68
2019-04-22T16:32:27.793Z,29.53
2019-04-22T16:34:58.725Z,29.26
2019-04-22T16:37:28.597Z,28.80
2019-04-22T16:39:58.923Z,28.17
2019-04-22T16:42:37.897Z,27.56
2019-04-22T16:44:59.755Z,27.05
2019-04-22T16:47:29.244Z,26.53
2019-04-22T16:49:59.617Z,26.23
2019-04-22T16:52:30.296Z,25.72
2019-04-22T16:55:00.985Z,25.40
2019-04-22T16:57:30.619Z,25.13
2019-04-22T17:00:00.450Z,25.06
2019-04-22T17:02:43.402Z,24.95
2019-04-22T17:05:15.936Z,24.65
2019-04-22T17:07:45.736Z,24.19
2019-04-22T17:10:15.613Z,24.06
2019-04-22T17:12:53.916Z,24.03
2019-04-22T17:15:18.496Z,24.16
2019-04-22T17:17:49.370Z,24.04
2019-04-22T17:20:18.878Z,23.91
2019-04-22T17:22:49.404Z,23.74
2019-04-22T17:25:20.370Z,23.54
2019-04-22T17:27:49.954Z,23.41
2019-04-22T17:30:20.181Z,23.21
2019-04-22T17:32:50.399Z,23.17
2019-04-22T17:35:20.055Z,23.15
2019-04-22T17:38:00.301Z,23.05
2019-04-22T17:40:42.208Z,22.93
2019-04-22T17:43:40.529Z,22.76
2019-04-22T17:46:04.479Z,22.59
2019-04-22T17:48:53.364Z,22.52
2019-04-22T17:51:34.402Z,22.42
2019-04-22T17:54:02.409Z,22.38
2019-04-22T17:56:33.713Z,22.29
2019-04-22T17:59:04.020Z,22.17
2019-04-22T18:01:29.675Z,22.05
2019-04-22T18:03:49.814Z,22.03
2019-04-22T18:06:42.873Z,21.98
2019-04-22T18:09:01.508Z,21.81
2019-04-22T18:14:26.077Z,21.62
2019-04-22T18:16:43.006Z,21.52
2019-04-22T18:19:11.856Z,21.41
2019-04-22T18:21:35.030Z,21.35
2019-04-22T18:24:04.660Z,21.29
2019-04-22T18:26:44.954Z,21.26
2019-04-22T18:29:20.992Z,21.20
2019-04-22T18:31:40.977Z,21.17
2019-04-22T18:34:10.156Z,21.09
2019-04-22T18:36:45.813Z,21.04
2019-04-22T18:39:31.158Z,21.01
2019-04-22T18:41:51.974Z,20.84
2019-04-22T18:44:29.061Z,20.79
2019-04-22T18:46:52.305Z,20.55
2019-04-22T18:49:30.775Z,20.52
2019-04-22T18:52:05.855Z,20.38
2019-04-22T18:54:36.779Z,20.25
2019-04-22T18:57:10.050Z,20.14
2019-04-22T18:59:27.817Z,20.07
2019-04-22T19:01:58.627Z,19.97
2019-04-22T19:04:31.726Z,19.84
2019-04-22T19:07:23.986Z,19.74
2019-04-22T19:09:59.446Z,19.71
2019-04-22T19:20:05.390Z,19.50
2019-04-22T19:22:29.885Z,19.44
2019-04-22T19:24:54.971Z,19.24
2019-04-22T19:27:39.534Z,19.15
2019-04-22T19:30:18.990Z,19.13
2019-04-22T19:32:46.480Z,19.09
2019-04-22T19:35:11.692Z,18.98
2019-04-22T19:37:42.479Z,18.85
2019-04-22T19:40:24.316Z,18.79
2019-04-22T19:42:52.642Z,18.79
2019-04-22T19:45:16.027Z,18.76
2019-04-22T19:47:56.575Z,18.70
2019-04-22T19:50:24.593Z,18.65
2019-04-22T19:52:59.491Z,18.63
2019-04-22T19:55:29.446Z,18.53
2019-04-22T19:57:54.610Z,18.47
2019-04-22T20:00:37.381Z,18.43
2019-04-22T20:03:29.398Z,18.51
2019-04-22T20:05:52.563Z,18.47
2019-04-22T20:08:26.377Z,18.45
2019-04-22T20:10:59.173Z,18.43
2019-04-22T20:13:33.559Z,18.32
2019-04-22T20:15:50.817Z,18.22
2019-04-22T20:18:35.653Z,18.14
2019-04-22T20:21:08.654Z,18.11
2019-04-22T20:23:25.672Z,18.03
2019-04-22T20:25:56.087Z,17.93
2019-04-22T20:28:37.813Z,17.93
2019-04-22T20:31:08.467Z,17.83
2019-04-22T20:33:45.569Z,17.78
2019-04-22T20:36:12.592Z,17.77
2019-04-22T20:38:42.490Z,17.74
2019-04-22T20:41:08.351Z,17.67
2019-04-22T20:43:50.004Z,17.58
2019-04-22T20:46:15.127Z,17.60
2019-04-22T20:48:50.207Z,17.68
2019-04-22T20:51:28.123Z,17.56
2019-04-22T20:53:49.087Z,17.39
2019-04-22T20:56:18.882Z,17.28
2019-04-22T20:58:51.732Z,17.33
2019-04-22T21:01:21.092Z,17.25
2019-04-22T21:03:43.987Z,17.22
2019-04-22T21:06:22.869Z,17.06
2019-04-22T21:09:01.167Z,17.10
2019-04-22T21:11:29.673Z,17.11
2019-04-22T21:14:01.367Z,17.11
2019-04-22T21:16:32.840Z,17.04
2019-04-22T21:19:03.815Z,17.02
2019-04-22T21:21:38.634Z,16.96
2019-04-22T21:24:00.752Z,16.90
2019-04-22T21:26:33.635Z,16.84
2019-04-22T21:29:09.878Z,16.80
2019-04-22T21:31:43.772Z,16.77
2019-04-22T21:34:10.031Z,16.72
2019-04-22T21:36:47.875Z,16.66
2019-04-22T21:39:15.696Z,16.67
2019-04-22T21:41:49.968Z,16.62
2019-04-22T21:44:14.074Z,16.60
2019-04-22T21:46:51.009Z,16.50
2019-04-22T21:49:21.680Z,16.43
2019-04-22T21:51:53.775Z,16.41
2019-04-22T21:54:26.680Z,16.37
2019-04-22T21:57:07.480Z,16.39
2019-04-22T21:59:27.063Z,16.37
2019-04-22T22:02:04.381Z,16.32
2019-04-22T22:04:30.344Z,16.35
2019-04-22T22:06:53.111Z,16.25
2019-04-22T22:09:34.630Z,16.22
2019-04-22T22:12:02.441Z,16.07
2019-04-22T22:14:35.853Z,15.88
2019-04-22T22:17:02.275Z,15.81
2019-04-22T22:19:39.440Z,15.87
2019-04-22T22:22:25.444Z,15.85
2019-04-22T22:24:43.892Z,15.79
2019-04-22T22:27:14.370Z,15.73
2019-04-22T22:30:05.653Z,15.70
2019-04-22T22:32:22.029Z,15.72
2019-04-22T22:34:45.901Z,15.86
2019-04-22T22:37:08.521Z,15.84
2019-04-22T22:39:39.251Z,15.87
2019-04-22T22:41:59.637Z,15.81
2019-04-22T22:44:36.017Z,15.74
2019-04-22T22:47:20.868Z,15.59
2019-04-22T22:49:53.583Z,15.52
2019-04-22T22:52:45.044Z,15.53
2019-04-22T22:54:57.595Z,15.45
2019-04-22T22:57:35.173Z,15.43
2019-04-22T22:59:57.774Z,15.41
2019-04-22T23:02:34.860Z,15.37
2019-04-22T23:05:05.862Z,15.29
2019-04-22T23:07:37.426Z,15.22
2019-04-22T23:10:02.007Z,15.24
2019-04-22T23:12:44.048Z,15.16
2019-04-22T23:15:04.701Z,15.19
2019-04-22T23:17:22.568Z,15.21
2019-04-22T23:19:51.839Z,15.21
2019-04-22T23:22:28.376Z,15.20
2019-04-22T23:25:20.594Z,15.21
2019-04-22T23:27:49.164Z,15.14
2019-04-22T23:30:19.742Z,15.12
2019-04-22T23:33:01.942Z,15.17
2019-04-22T23:35:36.737Z,15.20
2019-04-22T23:38:13.698Z,15.13
2019-04-22T23:40:42.789Z,15.05
2019-04-22T23:43:23.687Z,15.03
2019-04-22T23:46:02.309Z,15.07
2019-04-22T23:48:29.032Z,15.00
2019-04-22T23:51:08.672Z,15.09
2019-04-22T23:53:58.216Z,15.04
2019-04-22T23:56:07.920Z,14.95
